Time;durP1;ratioP1;P1;durP2;ratioP2;P2;SDS_P1;SDS_P2;PMS_P1;PMS_P2;Temp;Humidity;BMP_temperature;BMP_pressure;BME280_temperature;BME280_humidity;BME280_pressure;Samples;Min_cycle;Max_cycle;Signal;HPM_P1;HPM_P2
2022/01/20 00:01:47;;;;;;;4.73;3.80;;;;;;;3.09;100.00;95835.53;5071603;28;20217;-57
2022/01/20 00:04:28;;;;;;;6.87;4.03;;;;;;;3.12;100.00;95820.59;5071838;28;20658;-55
2022/01/20 00:20:40;;;;;;;6.47;3.77;;;;;;;3.07;100.00;95805.41;5055563;28;20201;-55
2022/01/20 00:26:18;;;;;;;5.27;3.97;;;;;;;3.09;100.00;95821.25;5055733;28;20227;-60
2022/01/20 00:28:46;;;;;;;5.23;3.50;;;;;;;3.10;100.00;95831.72;5071341;28;20256;-61
2022/01/20 00:33:49;;;;;;;5.17;3.67;;;;;;;3.11;100.00;95822.50;5055152;28;20213;-58
2022/01/20 00:38:58;;;;;;;4.70;3.33;;;;;;;3.14;100.00;95824.50;5055347;28;20228;-55
2022/01/20 00:41:24;;;;;;;5.07;3.70;;;;;;;3.12;100.00;95824.06;5070885;28;20221;-55
2022/01/20 00:43:49;;;;;;;4.43;3.30;;;;;;;3.14;100.00;95821.78;5070621;28;20225;-54
2022/01/20 00:46:14;;;;;;;6.17;3.60;;;;;;;3.13;100.00;95820.25;5070998;28;20198;-55
2022/01/20 00:48:40;;;;;;;6.07;3.83;;;;;;;3.17;100.00;95813.03;5070702;28;20198;-53
2022/01/20 00:51:05;;;;;;;5.73;3.87;;;;;;;3.13;100.00;95814.84;5070753;28;20220;-56
2022/01/20 00:53:30;;;;;;;4.67;3.43;;;;;;;3.18;100.00;95828.06;5071125;28;20212;-61
2022/01/20 00:55:56;;;;;;;4.20;3.43;;;;;;;3.15;100.00;95831.47;5070713;28;20201;-60
2022/01/20 00:58:22;;;;;;;5.97;3.83;;;;;;;3.18;100.00;95828.06;5070522;28;20239;-60
2022/01/20 01:00:47;;;;;;;4.80;3.40;;;;;;;3.15;100.00;95828.00;5071081;28;20213;-61
2022/01/20 01:03:12;;;;;;;5.37;3.70;;;;;;;3.14;100.00;95831.81;5069887;28;20245;-61
2022/01/20 01:05:48;;;;;;;4.73;3.60;;;;;;;3.14;100.00;95827.19;5070914;28;20343;-62
2022/01/20 01:08:14;;;;;;;6.13;4.57;;;;;;;3.16;100.00;95819.56;5070620;28;20193;-61
2022/01/20 01:10:41;;;;;;;6.20;3.90;;;;;;;3.19;100.00;95832.34;5070475;28;20197;-53
2022/01/20 01:13:11;;;;;;;5.57;3.50;;;;;;;3.20;100.00;95825.81;5054982;28;20206;-61
2022/01/20 01:15:43;;;;;;;4.73;3.53;;;;;;;3.13;100.00;95825.63;5070217;28;20198;-60
2022/01/20 01:23:26;;;;;;;4.87;3.30;;;;;;;3.19;100.00;95829.66;5054626;28;20209;-60
2022/01/20 01:25:52;;;;;;;4.63;3.37;;;;;;;3.19;100.00;95824.25;5070222;28;20206;-60
2022/01/20 01:28:20;;;;;;;5.87;3.57;;;;;;;3.17;100.00;95837.31;5070250;28;20190;-61
2022/01/20 01:33:33;;;;;;;5.43;3.80;;;;;;;3.19;100.00;95834.25;5054579;28;20205;-63
2022/01/20 01:36:02;;;;;;;4.77;3.60;;;;;;;3.19;100.00;95829.66;5069907;28;20197;-62
2022/01/20 01:38:36;;;;;;;7.47;3.57;;;;;;;3.18;100.00;95828.06;5070286;28;20205;-61
2022/01/20 01:41:03;;;;;;;4.97;3.33;;;;;;;3.21;100.00;95832.78;5070325;28;20232;-61
2022/01/20 01:43:31;;;;;;;4.77;3.67;;;;;;;3.23;100.00;95825.13;5069920;28;20216;-61
2022/01/20 01:45:56;;;;;;;5.37;3.23;;;;;;;3.26;100.00;95820.97;5069698;28;20236;-62
2022/01/20 01:48:21;;;;;;;4.47;3.10;;;;;;;3.28;100.00;95811.38;5053079;28;20244;-53
2022/01/20 01:50:47;;;;;;;5.53;3.33;;;;;;;3.27;100.00;95815.22;5069663;28;20205;-65
2022/01/20 01:53:14;;;;;;;4.37;3.13;;;;;;;3.27;100.00;95820.63;5068282;28;20247;-65
2022/01/20 01:55:40;;;;;;;4.60;3.00;;;;;;;3.20;100.00;95804.25;5069519;28;20289;-65
2022/01/20 01:58:08;;;;;;;4.37;3.07;;;;;;;3.23;100.00;95805.47;5069333;28;20197;-64
2022/01/20 02:00:34;;;;;;;3.83;2.97;;;;;;;3.26;100.00;95802.88;5069375;28;20213;-65
2022/01/20 02:03:00;;;;;;;4.77;3.00;;;;;;;3.28;100.00;95789.78;5069373;28;20194;-64
2022/01/20 02:05:26;;;;;;;4.90;2.80;;;;;;;3.32;100.00;95806.84;5054297;28;20647;-54
2022/01/20 02:19:13;;;;;;;3.43;2.67;;;;;;;3.31;100.00;95810.69;5054648;28;20196;-57
2022/01/20 02:21:49;;;;;;;5.10;3.20;;;;;;;3.36;100.00;95818.53;5068913;28;20174;-53
2022/01/20 02:24:15;;;;;;;4.07;2.90;;;;;;;3.29;100.00;95807.53;5052827;28;20288;-65
2022/01/20 02:26:40;;;;;;;4.03;3.00;;;;;;;3.34;100.00;95809.22;5069133;28;20208;-54
2022/01/20 02:29:06;;;;;;;4.63;3.33;;;;;;;3.29;100.00;95802.16;5053421;28;20260;-53
2022/01/20 02:31:31;;;;;;;5.80;3.60;;;;;;;3.29;100.00;95806.78;5069167;28;20202;-52
2022/01/20 02:33:58;;;;;;;4.00;3.00;;;;;;;3.30;100.00;95803.75;5069033;28;20259;-51
2022/01/20 02:36:23;;;;;;;4.93;3.20;;;;;;;3.29;100.00;95791.34;5069385;28;20229;-54
2022/01/20 02:38:57;;;;;;;5.67;3.70;;;;;;;3.25;100.00;95778.94;5053610;28;20205;-54
2022/01/20 02:46:50;;;;;;;3.40;3.00;;;;;;;3.00;100.00;95786.38;5053565;28;20224;-62
2022/01/20 02:49:17;;;;;;;6.60;3.20;;;;;;;2.96;100.00;95784.72;5053506;28;20556;-60
2022/01/20 02:51:51;;;;;;;4.43;3.43;;;;;;;2.90;100.00;95768.00;5068967;28;20252;-61
2022/01/20 02:54:17;;;;;;;4.50;3.10;;;;;;;2.88;100.00;95777.56;5069028;28;20193;-60
2022/01/20 02:56:42;;;;;;;6.20;3.60;;;;;;;2.85;100.00;95781.72;5069181;28;20601;-60
2022/01/20 02:59:08;;;;;;;4.03;3.07;;;;;;;2.99;100.00;95771.31;5068553;28;20193;-60
2022/01/20 03:01:33;;;;;;;5.10;3.40;;;;;;;2.87;100.00;95779.47;5069069;28;20196;-59
2022/01/20 03:04:00;;;;;;;4.13;3.30;;;;;;;2.90;100.00;95773.38;5070517;28;20190;-66
2022/01/20 03:06:26;;;;;;;4.87;3.43;;;;;;;2.88;100.00;95758.69;5072537;28;20196;-66
2022/01/20 03:08:51;;;;;;;4.17;3.37;;;;;;;2.83;100.00;95762.41;5072619;28;20177;-67
2022/01/20 03:11:16;;;;;;;5.37;3.90;;;;;;;2.78;100.00;95759.97;5072635;28;20204;-66
2022/01/20 03:13:42;;;;;;;3.93;3.10;;;;;;;2.71;100.00;95751.69;5072083;28;20233;-66
2022/01/20 03:16:07;;;;;;;4.27;3.40;;;;;;;2.67;100.00;95750.03;5072243;28;20201;-65
2022/01/20 03:18:33;;;;;;;4.53;3.60;;;;;;;2.72;100.00;95749.75;5072147;28;20201;-70
2022/01/20 03:20:58;;;;;;;4.33;3.20;;;;;;;2.77;100.00;95752.22;5071817;28;20291;-55
2022/01/20 03:23:24;;;;;;;5.97;3.73;;;;;;;2.77;100.00;95744.91;5072009;28;20190;-60
2022/01/20 03:25:49;;;;;;;5.23;3.50;;;;;;;2.81;100.00;95745.78;5071759;28;20218;-61
2022/01/20 03:28:14;;;;;;;4.67;3.60;;;;;;;2.84;100.00;95747.78;5072047;28;20280;-60
2022/01/20 03:30:40;;;;;;;4.53;3.40;;;;;;;2.87;100.00;95747.09;5071696;28;20269;-61
2022/01/20 03:33:05;;;;;;;6.57;3.90;;;;;;;2.82;100.00;95728.50;5072146;28;20277;-60
2022/01/20 03:35:31;;;;;;;4.73;3.60;;;;;;;2.80;100.00;95736.13;5071959;28;20254;-60
2022/01/20 03:37:57;;;;;;;4.37;3.40;;;;;;;2.72;100.00;95739.78;5071565;28;20198;-60
2022/01/20 03:40:23;;;;;;;4.00;3.60;;;;;;;2.71;100.00;95750.91;5072221;28;20205;-67
2022/01/20 03:42:49;;;;;;;4.73;3.30;;;;;;;2.67;100.00;95753.50;5071625;28;20288;-60
2022/01/20 03:45:15;;;;;;;4.60;3.10;;;;;;;2.67;100.00;95748.13;5071564;28;20240;-60
2022/01/20 03:47:42;;;;;;;4.20;2.90;;;;;;;2.62;100.00;95761.06;5055748;28;20225;-61
2022/01/20 03:50:59;;;;;;;4.53;3.17;;;;;;;2.57;100.00;95763.97;5071411;28;20233;-61
2022/01/20 03:52:53;;;;;;;4.80;3.23;;;;;;;2.51;100.00;95760.75;5056202;28;20213;-60
2022/01/20 03:55:19;;;;;;;7.07;3.70;;;;;;;2.46;100.00;95752.91;5072064;28;20223;-60
2022/01/20 03:57:44;;;;;;;5.10;3.50;;;;;;;2.36;100.00;95753.38;5071555;28;20255;-54
2022/01/20 04:00:10;;;;;;;4.97;3.30;;;;;;;2.35;100.00;95757.22;5071695;28;20218;-63
2022/01/20 04:02:35;;;;;;;4.97;3.70;;;;;;;2.28;100.00;95765.09;5071656;28;20212;-64
2022/01/20 04:05:01;;;;;;;5.40;3.47;;;;;;;2.16;100.00;95758.94;5071673;28;20194;-63
2022/01/20 04:07:26;;;;;;;4.57;3.20;;;;;;;2.12;100.00;95761.53;5071790;28;20244;-63
2022/01/20 04:09:51;;;;;;;4.90;3.43;;;;;;;2.06;100.00;95768.28;5071388;28;20246;-63
2022/01/20 04:12:17;;;;;;;5.67;3.47;;;;;;;1.95;100.00;95767.19;5071062;28;20205;-64
2022/01/20 04:14:47;;;;;;;5.30;3.70;;;;;;;1.92;100.00;95765.16;5070856;28;20197;-61
2022/01/20 04:17:18;;;;;;;4.97;3.50;;;;;;;1.88;100.00;95764.28;5070640;28;20196;-60
2022/01/20 04:19:43;;;;;;;7.90;5.50;;;;;;;1.87;100.00;95762.72;5055448;28;20260;-59
2022/01/20 04:22:09;;;;;;;5.00;3.30;;;;;;;1.83;100.00;95772.59;5055504;28;20199;-59
2022/01/20 04:24:34;;;;;;;4.50;3.40;;;;;;;1.80;100.00;95767.09;5071045;28;20280;-59
2022/01/20 04:27:00;;;;;;;4.90;3.57;;;;;;;1.76;100.00;95768.88;5070937;28;20504;-61
2022/01/20 04:29:26;;;;;;;4.63;3.07;;;;;;;1.75;100.00;95765.41;5070948;28;20207;-60
2022/01/20 04:31:51;;;;;;;6.53;3.20;;;;;;;1.72;100.00;95752.63;5070876;28;20198;-60
2022/01/20 04:34:17;;;;;;;4.43;3.37;;;;;;;1.73;100.00;95753.41;5070920;28;20268;-71
2022/01/20 04:36:45;;;;;;;4.80;3.43;;;;;;;1.71;100.00;95750.28;5055241;28;20214;-60
2022/01/20 04:39:18;;;;;;;5.40;3.97;;;;;;;1.67;100.00;95755.53;5071372;28;20199;-60
2022/01/20 04:41:43;;;;;;;5.83;3.70;;;;;;;1.64;100.00;95748.13;5054908;28;20291;-60
2022/01/20 04:44:16;;;;;;;6.10;4.37;;;;;;;1.58;100.00;95740.63;5071182;28;20286;-59
2022/01/20 04:57:03;;;;;;;5.20;3.77;;;;;;;1.52;100.00;95745.47;5055383;28;20208;-60
2022/01/20 04:57:25;;;;;;;5.50;3.53;;;;;;;1.45;100.00;95750.63;5055112;28;20261;-60
2022/01/20 04:59:54;;;;;;;5.40;3.80;;;;;;;1.35;100.00;95740.28;5070566;28;20203;-60
2022/01/20 05:02:21;;;;;;;5.93;4.20;;;;;;;1.34;100.00;95746.81;5070411;28;20193;-59
2022/01/20 05:04:46;;;;;;;5.17;3.57;;;;;;;1.33;100.00;95736.38;5070421;28;20267;-60
2022/01/20 05:07:19;;;;;;;6.27;3.90;;;;;;;1.35;100.00;95744.91;5069910;28;20229;-59
2022/01/20 05:09:45;;;;;;;4.07;3.37;;;;;;;1.31;100.00;95747.47;5070507;28;20204;-71
2022/01/20 05:12:14;;;;;;;5.60;3.80;;;;;;;1.31;100.00;95755.53;5071181;28;20212;-62
2022/01/20 05:14:39;;;;;;;6.37;4.03;;;;;;;1.30;100.00;95751.28;5070244;28;20359;-62
2022/01/20 05:17:05;;;;;;;6.50;4.17;;;;;;;1.29;100.00;95747.03;5054174;28;20258;-61
2022/01/20 05:19:32;;;;;;;6.83;4.37;;;;;;;1.26;100.00;95736.94;5069951;28;20264;-62
2022/01/20 05:21:58;;;;;;;5.77;4.27;;;;;;;1.23;100.00;95737.59;5054156;28;20197;-62
2022/01/20 05:24:23;;;;;;;6.57;4.10;;;;;;;1.25;100.00;95738.06;5069875;28;20216;-61
2022/01/20 05:26:50;;;;;;;6.17;4.20;;;;;;;1.26;100.00;95742.31;5054045;28;20211;-62
2022/01/20 05:29:19;;;;;;;6.07;4.53;;;;;;;1.28;100.00;95742.78;5070378;28;20302;-61
2022/01/20 05:31:44;;;;;;;6.60;4.60;;;;;;;1.32;100.00;95741.00;5069778;28;20210;-65
2022/01/20 05:34:10;;;;;;;7.50;4.50;;;;;;;1.34;100.00;95732.59;5069842;28;20204;-65
2022/01/20 05:36:35;;;;;;;8.60;4.33;;;;;;;1.36;100.00;95736.50;5070099;28;20261;-65
2022/01/20 05:39:01;;;;;;;6.47;4.40;;;;;;;1.32;100.00;95738.28;5069936;28;20298;-66
2022/01/20 05:41:27;;;;;;;6.30;4.50;;;;;;;1.35;100.00;95732.22;5069932;28;20220;-66
2022/01/20 05:43:52;;;;;;;6.90;4.30;;;;;;;1.29;100.00;95732.78;5070425;28;20201;-66
2022/01/20 05:46:22;;;;;;;5.53;4.53;;;;;;;1.34;100.00;95733.34;5069796;28;20207;-60
2022/01/20 05:48:49;;;;;;;5.33;4.07;;;;;;;1.38;100.00;95728.09;5070629;28;20215;-59
2022/01/20 05:51:15;;;;;;;6.47;4.47;;;;;;;1.41;100.00;95727.41;5069793;28;20226;-64
2022/01/20 05:53:41;;;;;;;7.00;4.90;;;;;;;1.40;100.00;95720.47;5069875;28;20298;-64
2022/01/20 05:56:06;;;;;;;6.57;4.67;;;;;;;1.46;100.00;95725.28;5069548;28;20231;-63
2022/01/20 05:58:36;;;;;;;6.57;4.10;;;;;;;1.45;100.00;95723.72;5069819;28;20203;-64
2022/01/20 06:01:05;;;;;;;7.27;4.10;;;;;;;1.46;100.00;95725.28;5069228;28;20250;-63
2022/01/20 06:03:36;;;;;;;6.00;4.43;;;;;;;1.46;100.00;95730.66;5069447;28;20207;-67
2022/01/20 06:06:07;;;;;;;7.73;4.40;;;;;;;1.49;100.00;95735.38;5069565;28;20207;-56
2022/01/20 06:08:35;;;;;;;6.53;4.73;;;;;;;1.51;100.00;95738.53;5070023;28;20289;-50
2022/01/20 06:11:00;;;;;;;6.23;4.53;;;;;;;1.52;100.00;95734.69;5069305;28;20199;-51
2022/01/20 06:13:27;;;;;;;7.07;4.43;;;;;;;1.57;100.00;95736.38;5069852;28;20179;-51
2022/01/20 06:15:52;;;;;;;5.30;4.10;;;;;;;1.57;100.00;95742.53;5069029;28;20212;-54
2022/01/20 06:18:18;;;;;;;6.57;4.43;;;;;;;1.56;100.00;95735.59;5069256;28;20204;-50
2022/01/20 06:20:44;;;;;;;6.97;4.67;;;;;;;1.57;100.00;95729.06;5069427;28;20296;-54
2022/01/20 06:23:10;;;;;;;6.50;4.30;;;;;;;1.52;100.00;95739.28;5069132;28;20233;-59
2022/01/20 06:25:35;;;;;;;5.97;4.30;;;;;;;1.53;100.00;95736.25;5069405;28;20206;-65
2022/01/20 06:28:01;;;;;;;6.77;4.47;;;;;;;1.56;100.00;95746.34;5068822;28;20214;-62
2022/01/20 06:30:27;;;;;;;7.90;4.70;;;;;;;1.59;100.00;95742.19;5068851;28;20299;-64
2022/01/20 06:32:53;;;;;;;6.87;4.10;;;;;;;1.64;100.00;95748.13;5068946;28;20205;-65
2022/01/20 06:35:19;;;;;;;5.73;4.37;;;;;;;1.64;100.00;95745.44;5069228;28;20204;-65
2022/01/20 06:37:44;;;;;;;6.20;3.93;;;;;;;1.64;100.00;95739.28;5068953;28;20197;-65
2022/01/20 06:40:11;;;;;;;6.10;3.87;;;;;;;1.64;100.00;95740.06;5072472;28;20220;-63
2022/01/20 06:42:36;;;;;;;7.20;4.00;;;;;;;1.65;100.00;95725.50;5072987;28;20181;-67
2022/01/20 06:45:07;;;;;;;5.57;4.27;;;;;;;1.65;100.00;95741.66;5072248;28;20208;-50
2022/01/20 06:47:33;;;;;;;6.10;3.70;;;;;;;1.67;100.00;95736.69;5056688;28;20658;-52
2022/01/20 06:50:00;;;;;;;5.80;3.97;;;;;;;1.68;100.00;95738.25;5072420;28;20295;-50
2022/01/20 06:52:25;;;;;;;5.17;3.77;;;;;;;1.69;100.00;95739.84;5072291;28;20254;-52
2022/01/20 06:54:51;;;;;;;6.27;4.17;;;;;;;1.68;100.00;95732.13;5072104;28;20203;-53
2022/01/20 06:57:16;;;;;;;5.63;3.80;;;;;;;1.67;100.00;95742.09;5072111;28;20208;-52
2022/01/20 06:59:41;;;;;;;6.27;3.90;;;;;;;1.70;100.00;95738.72;5072606;28;20210;-58
2022/01/20 07:02:07;;;;;;;6.50;4.27;;;;;;;1.68;100.00;95732.88;5072703;28;20201;-60
2022/01/20 07:04:32;;;;;;;4.57;3.77;;;;;;;1.70;100.00;95730.66;5072143;28;20206;-67
2022/01/20 07:06:59;;;;;;;4.53;3.67;;;;;;;1.70;100.00;95733.34;5072430;28;20201;-66
2022/01/20 07:09:24;;;;;;;5.90;4.20;;;;;;;1.73;100.00;95735.38;5072411;28;20205;-66
2022/01/20 07:11:50;;;;;;;6.20;4.40;;;;;;;1.73;100.00;95740.75;5072045;28;20255;-67
2022/01/20 07:14:16;;;;;;;4.60;3.80;;;;;;;1.76;100.00;95742.75;5072598;28;20246;-66
2022/01/20 07:16:41;;;;;;;6.20;4.40;;;;;;;1.74;100.00;95742.31;5072659;28;20305;-67
2022/01/20 07:19:06;;;;;;;6.93;4.20;;;;;;;1.80;100.00;95740.97;5072266;28;20224;-72
2022/01/20 07:21:32;;;;;;;6.33;4.40;;;;;;;1.82;100.00;95748.69;5071641;28;20645;-59
2022/01/20 07:23:57;;;;;;;6.30;4.07;;;;;;;1.85;100.00;95743.41;5072072;28;20202;-58
2022/01/20 07:26:22;;;;;;;5.23;4.07;;;;;;;1.82;100.00;95744.09;5071986;28;20197;-59
2022/01/20 07:28:48;;;;;;;5.50;3.83;;;;;;;1.83;100.00;95742.97;5071896;28;20201;-59
2022/01/20 07:31:16;;;;;;;5.43;3.83;;;;;;;1.83;100.00;95745.69;5071504;28;20247;-59
2022/01/20 07:33:42;;;;;;;5.60;3.90;;;;;;;1.86;100.00;95744.22;5071630;28;20238;-59
2022/01/20 07:36:08;;;;;;;5.70;3.60;;;;;;;1.86;100.00;95753.06;5071765;28;20239;-72
2022/01/20 07:38:33;;;;;;;4.80;3.80;;;;;;;1.90;100.00;95751.25;5072053;28;20196;-58
2022/01/20 07:40:59;;;;;;;5.50;3.60;;;;;;;1.93;100.00;95753.25;5071496;28;20216;-54
2022/01/20 07:43:24;;;;;;;6.87;3.90;;;;;;;2.02;100.00;95770.09;5071936;28;20192;-53
2022/01/20 07:45:49;;;;;;;7.20;3.97;;;;;;;1.98;100.00;95763.81;5071807;28;20248;-55
2022/01/20 07:48:15;;;;;;;5.50;3.30;;;;;;;2.01;100.00;95763.13;5071712;28;20232;-53
2022/01/20 07:50:40;;;;;;;4.23;3.27;;;;;;;2.00;100.00;95764.25;5071400;28;20200;-48
2022/01/20 07:53:05;;;;;;;4.60;3.30;;;;;;;1.98;100.00;95760.34;5071678;28;20545;-47
2022/01/20 07:55:31;;;;;;;4.80;3.67;;;;;;;1.98;100.00;95753.06;5071837;28;20204;-60
2022/01/20 07:57:57;;;;;;;5.83;3.70;;;;;;;2.03;100.00;95766.28;5071646;28;20284;-59
2022/01/20 08:00:23;;;;;;;3.60;3.00;;;;;;;2.04;100.00;95751.66;5071303;28;20214;-59
2022/01/20 08:02:49;;;;;;;4.60;3.53;;;;;;;2.12;100.00;95756.13;5071390;28;20560;-60
2022/01/20 08:05:14;;;;;;;4.60;3.20;;;;;;;2.11;100.00;95764.59;5071494;28;20300;-59
2022/01/20 08:07:40;;;;;;;4.23;2.93;;;;;;;2.14;100.00;95777.34;5071463;28;20203;-59
2022/01/20 08:10:06;;;;;;;5.33;3.30;;;;;;;2.16;100.00;95773.22;5071590;28;20198;-59
2022/01/20 08:12:31;;;;;;;4.43;2.97;;;;;;;2.20;100.00;95787.56;5070894;28;20252;-59
2022/01/20 08:14:58;;;;;;;3.93;3.00;;;;;;;2.19;100.00;95785.97;5071843;28;20177;-62
2022/01/20 08:17:24;;;;;;;3.70;3.20;;;;;;;2.26;100.00;95796.97;5071711;28;20331;-59
2022/01/20 08:19:50;;;;;;;3.73;3.00;;;;;;;2.22;100.00;95796.06;5071279;28;20315;-60
2022/01/20 08:22:15;;;;;;;4.90;3.20;;;;;;;2.20;100.00;95787.56;5071128;28;20287;-57
2022/01/20 08:24:41;;;;;;;3.70;2.80;;;;;;;2.25;100.00;95789.22;5070751;28;20678;-61
2022/01/20 08:27:09;;;;;;;3.90;3.00;;;;;;;2.32;100.00;95805.59;5070904;28;20202;-60
2022/01/20 08:29:36;;;;;;;3.53;3.00;;;;;;;2.28;100.00;95794.72;5070807;28;20212;-61
2022/01/20 08:32:04;;;;;;;3.10;2.77;;;;;;;2.30;100.00;95803.22;5070902;28;20206;-55
2022/01/20 08:34:29;;;;;;;3.73;2.93;;;;;;;2.34;100.00;95804.13;5070800;28;20208;-54
2022/01/20 08:36:55;;;;;;;3.20;2.47;;;;;;;2.25;100.00;95806.19;5071062;28;20194;-56
2022/01/20 08:41:58;;;;;;;3.73;2.70;;;;;;;2.28;100.00;95813.59;5054992;28;20191;-54
2022/01/20 08:44:23;;;;;;;3.43;2.53;;;;;;;2.28;100.00;95808.19;5070956;28;20197;-54
2022/01/20 08:46:50;;;;;;;3.87;3.10;;;;;;;2.28;100.00;95810.88;5070263;28;20198;-53
2022/01/20 08:49:16;;;;;;;3.67;2.87;;;;;;;2.26;100.00;95810.44;5070440;28;20205;-55
2022/01/20 08:51:41;;;;;;;3.30;2.60;;;;;;;2.28;100.00;95810.88;5070827;28;20190;-62
2022/01/20 08:54:06;;;;;;;3.00;2.53;;;;;;;2.25;100.00;95822.34;5070243;28;20198;-57
2022/01/20 08:56:35;;;;;;;3.50;2.93;;;;;;;2.26;100.00;95812.34;5070009;28;20190;-58
2022/01/20 08:59:06;;;;;;;3.13;2.53;;;;;;;2.26;100.00;95834.69;5070455;28;20194;-58
2022/01/20 09:01:33;;;;;;;4.67;2.30;;;;;;;2.27;100.00;95841.66;5069783;28;20235;-57
2022/01/20 09:03:58;;;;;;;3.13;2.60;;;;;;;2.26;100.00;95845.44;5070283;28;20266;-57
2022/01/20 09:06:24;;;;;;;4.53;2.87;;;;;;;2.23;100.00;95846.13;5070744;28;20232;-57
2022/01/20 09:08:49;;;;;;;3.90;2.50;;;;;;;2.25;100.00;95843.88;5070103;28;20300;-60
2022/01/20 09:11:20;;;;;;;3.53;2.70;;;;;;;2.28;100.00;95829.75;5070795;28;20173;-66
2022/01/20 09:16:30;;;;;;;3.17;2.77;;;;;;;2.29;100.00;95815.16;5054912;28;20254;-68
2022/01/20 09:18:56;;;;;;;3.53;2.77;;;;;;;2.34;100.00;95820.28;5069967;28;20209;-67
2022/01/20 09:21:23;;;;;;;2.73;2.47;;;;;;;2.33;100.00;95807.94;5069706;28;20351;-68
2022/01/20 09:23:49;;;;;;;3.40;2.90;;;;;;;2.32;100.00;95822.56;5069871;28;20208;-69
2022/01/20 09:26:15;;;;;;;3.10;2.60;;;;;;;2.37;100.00;95835.78;5069918;28;20200;-52
2022/01/20 09:28:40;;;;;;;3.17;2.87;;;;;;;2.42;100.00;95832.88;5070423;28;20198;-57
2022/01/20 09:31:07;;;;;;;4.07;3.10;;;;;;;2.46;100.00;95839.13;5069767;28;20209;-51
2022/01/20 09:33:33;;;;;;;3.50;2.80;;;;;;;2.48;100.00;95847.66;5069928;28;20213;-47
2022/01/20 09:35:59;;;;;;;4.13;3.10;;;;;;;2.52;100.00;95855.88;5069505;28;20177;-47
2022/01/20 09:38:25;;;;;;;4.43;3.27;;;;;;;2.55;100.00;95853.25;5069654;28;20241;-47
2022/01/20 09:40:51;;;;;;;3.57;2.83;;;;;;;2.56;100.00;95854.84;5069999;28;20259;-48
2022/01/20 09:43:17;;;;;;;5.40;3.30;;;;;;;2.61;100.00;95856.50;5070289;28;20197;-47
2022/01/20 09:45:48;;;;;;;4.70;3.23;;;;;;;2.64;100.00;95869.31;5069661;28;20208;-60
2022/01/20 09:48:15;;;;;;;4.73;2.97;;;;;;;2.72;100.00;95877.25;5069860;28;20201;-61
2022/01/20 09:50:41;;;;;;;4.00;3.00;;;;;;;2.75;100.00;95873.09;5069509;28;20194;-61
2022/01/20 09:53:06;;;;;;;4.43;3.40;;;;;;;2.80;100.00;95857.47;5069235;28;20202;-60
2022/01/20 09:55:32;;;;;;;4.17;2.90;;;;;;;2.90;100.00;95846.19;5069601;28;20201;-60
2022/01/20 09:57:58;;;;;;;5.07;3.67;;;;;;;3.11;100.00;95841.41;5069514;28;20255;-60
2022/01/20 10:00:24;;;;;;;5.83;4.37;;;;;;;3.17;100.00;95858.88;5069847;28;20248;-60
2022/01/20 10:03:06;;;;;;;4.63;3.10;;;;;;;3.27;100.00;95847.59;5069452;28;20267;-68
2022/01/20 10:05:36;;;;;;;4.40;3.50;;;;;;;3.47;100.00;95857.38;5069318;28;20201;-47
2022/01/20 10:08:04;;;;;;;3.53;2.97;;;;;;;3.35;100.00;95857.44;5070113;28;20201;-62
2022/01/20 10:10:44;;;;;;;3.97;2.93;;;;;;;3.39;100.00;95866.41;5069469;28;20236;-62
2022/01/20 10:13:11;;;;;;;5.97;3.20;;;;;;;3.40;100.00;95861.81;5067893;28;20202;-62
2022/01/20 10:15:37;;;;;;;5.47;4.20;;;;;;;3.39;100.00;95860.25;5069337;28;20229;-62
2022/01/20 10:18:09;;;;;;;4.07;2.90;;;;;;;3.27;100.00;95858.41;5069462;28;20194;-62
2022/01/20 10:20:35;;;;;;;4.43;3.03;;;;;;;3.23;100.00;95860.22;5069310;28;20220;-61
2022/01/20 10:23:00;;;;;;;4.27;3.03;;;;;;;3.24;100.00;95871.78;5069363;28;20193;-67
2022/01/20 10:25:26;;;;;;;3.33;3.03;;;;;;;3.21;100.00;95869.78;5069177;28;20181;-59
2022/01/20 10:27:54;;;;;;;10.23;5.90;;;;;;;3.18;100.00;95870.47;5068866;28;20205;-60
2022/01/20 10:30:22;;;;;;;5.43;2.90;;;;;;;3.31;100.00;95866.56;5069444;28;20244;-59
2022/01/20 10:32:54;;;;;;;6.60;2.83;;;;;;;3.35;100.00;95862.84;5068984;28;20267;-60
2022/01/20 10:35:26;;;;;;;3.63;2.77;;;;;;;3.34;100.00;95863.19;5069005;28;20193;-60
2022/01/20 10:37:59;;;;;;;4.53;3.43;;;;;;;3.27;100.00;95866.50;5069303;28;20194;-60
2022/01/20 10:40:25;;;;;;;4.37;3.73;;;;;;;3.40;100.00;95845.63;5069081;28;20351;-52
2022/01/20 10:42:51;;;;;;;4.47;3.23;;;;;;;3.34;100.00;95857.78;5069203;28;20235;-47
2022/01/20 10:45:28;;;;;;;5.87;3.40;;;;;;;3.37;100.00;95863.28;5068793;28;20196;-56
2022/01/20 10:47:56;;;;;;;3.90;3.50;;;;;;;3.53;100.00;95874.88;5068848;28;20209;-56
2022/01/20 10:50:29;;;;;;;4.27;3.47;;;;;;;3.57;100.00;95868.81;5069308;28;20206;-56
2022/01/20 10:52:55;;;;;;;4.40;3.27;;;;;;;3.77;100.00;95857.75;5068663;28;20265;-57
2022/01/20 10:55:27;;;;;;;4.33;3.50;;;;;;;3.91;100.00;95860.03;5069247;28;20233;-57
2022/01/20 10:57:54;;;;;;;3.97;3.57;;;;;;;4.32;100.00;95854.03;5068688;28;20202;-56
2022/01/20 11:00:22;;;;;;;5.40;3.40;;;;;;;4.71;100.00;95844.88;5069046;28;20248;-65
2022/01/20 11:02:53;;;;;;;5.90;3.57;;;;;;;5.26;100.00;95852.56;5068711;28;20194;-63
2022/01/20 11:05:18;;;;;;;5.23;3.30;;;;;;;5.46;100.00;95848.72;5068620;28;20202;-63
2022/01/20 11:07:45;;;;;;;4.00;3.60;;;;;;;5.72;100.00;95851.50;5068729;28;20194;-65
2022/01/20 11:10:11;;;;;;;5.40;3.50;;;;;;;5.80;100.00;95853.19;5068918;28;20229;-66
2022/01/20 11:12:37;;;;;;;3.20;2.90;;;;;;;6.23;100.00;95855.50;5068380;28;20291;-66
2022/01/20 11:15:07;;;;;;;4.40;3.20;;;;;;;6.22;100.00;95860.13;5068992;28;20175;-66
2022/01/20 11:17:35;;;;;;;4.37;2.97;;;;;;;6.21;100.00;95849.66;5068218;28;20199;-61
2022/01/20 11:20:12;;;;;;;3.33;3.03;;;;;;;5.73;100.00;95853.88;5053021;28;20211;-54
2022/01/20 11:22:53;;;;;;;3.13;2.50;;;;;;;5.51;100.00;95848.41;5068160;28;20202;-54
2022/01/20 11:25:21;;;;;;;4.93;3.10;;;;;;;5.71;100.00;95844.50;5070091;28;20203;-55
2022/01/20 11:27:49;;;;;;;4.00;3.07;;;;;;;5.63;100.00;95843.63;5071809;28;20194;-54
2022/01/20 11:30:21;;;;;;;4.33;2.90;;;;;;;5.73;100.00;95842.22;5071784;28;20211;-55
2022/01/20 11:32:58;;;;;;;3.97;3.00;;;;;;;5.99;100.00;95842.31;5072038;28;20668;-56
2022/01/20 11:35:35;;;;;;;4.13;3.00;;;;;;;5.99;100.00;95834.19;5072191;28;20203;-67
2022/01/20 11:38:00;;;;;;;4.40;3.27;;;;;;;5.84;100.00;95826.97;5071605;28;20199;-56
2022/01/20 11:40:26;;;;;;;4.50;2.80;;;;;;;5.68;100.00;95829.00;5072245;28;20220;-57
2022/01/20 11:42:59;;;;;;;3.67;2.57;;;;;;;5.51;100.00;95818.63;5071310;28;20196;-57
2022/01/20 11:45:32;;;;;;;4.20;2.83;;;;;;;5.35;100.00;95821.44;5055160;28;20583;-57
2022/01/20 11:47:58;;;;;;;3.10;2.53;;;;;;;5.24;100.00;95816.97;5071645;28;20239;-55
2022/01/20 11:50:24;;;;;;;4.93;3.00;;;;;;;5.18;100.00;95807.56;5071654;28;20202;-58
2022/01/20 11:52:49;;;;;;;5.27;3.37;;;;;;;5.29;100.00;95806.63;5071330;28;20196;-59
2022/01/20 11:55:17;;;;;;;3.87;2.73;;;;;;;5.36;100.00;95801.31;5071346;28;20194;-56
2022/01/20 11:57:43;;;;;;;4.03;2.83;;;;;;;5.16;100.00;95788.19;5071210;28;20182;-63
2022/01/20 12:00:30;;;;;;;3.77;2.33;;;;;;;4.97;100.00;95782.81;5071779;28;20302;-65
2022/01/20 12:02:55;;;;;;;4.97;2.50;;;;;;;5.00;100.00;95799.13;5054918;28;20201;-65
2022/01/20 12:05:29;;;;;;;3.20;2.67;;;;;;;4.94;100.00;95800.53;5070893;28;20263;-64
2022/01/20 12:08:12;;;;;;;3.63;2.47;;;;;;;5.08;100.00;95800.03;5071691;28;20205;-63
2022/01/20 12:10:39;;;;;;;2.77;2.30;;;;;;;5.03;100.00;95792.22;5055914;28;20558;-64
2022/01/20 12:13:13;;;;;;;5.07;2.23;;;;;;;4.97;100.00;95801.75;5071250;28;20202;-65
2022/01/20 12:16:00;;;;;;;4.23;2.30;;;;;;;4.64;100.00;95802.25;5071713;28;20233;-62
2022/01/20 12:18:31;;;;;;;3.77;2.20;;;;;;;4.64;100.00;95812.28;5053639;28;20222;-60
2022/01/20 12:21:46;;;;;;;5.03;2.40;;;;;;;4.77;100.00;95790.13;5000365;28;20227;-60
2022/01/20 12:24:11;;;;;;;4.37;2.27;;;;;;;4.63;100.00;95789.09;4974398;28;20204;-59
2022/01/20 12:26:36;;;;;;;4.23;2.53;;;;;;;4.70;100.00;95797.34;4974711;28;20219;-59
2022/01/20 12:29:08;;;;;;;3.57;2.53;;;;;;;4.71;100.00;95785.38;4974676;28;20327;-61
2022/01/20 12:31:48;;;;;;;4.07;2.80;;;;;;;4.80;100.00;95778.63;4975173;28;20193;-67
2022/01/20 12:34:14;;;;;;;5.53;2.30;;;;;;;4.88;100.00;95780.31;4975341;28;20259;-55
2022/01/20 12:36:39;;;;;;;3.77;2.30;;;;;;;4.89;100.00;95773.00;4957434;28;20214;-55